BON372 FOOL-FAOR
Flight info
| Callsign | BON372 |
|---|---|
| Flight time | N/A |
| Altitude | 35000 |
| Route | PILVI1S PILVI UR526 VNA UT942 ARGOL/N0457F370 R987 UVAMO UT942 UTVIN UM998 XOXAM UL435 ETOSA UZ10 PEDIL/N0386F230 Q19 AVAGO AVAGO1C |
| Aircraft | A21N/M-SDE2E3FGHIRWXY/LB1 |
Departure
| Time | 2026-04-22 17:23 |
|---|---|
| Airport | Libreville Leon M'ba International Airport (FOOL) |
Arrival
| Time | N/A |
|---|---|
| Airport | O.R. Tambo International Airport (FAOR) |
| Time | Latitude | Longitude | Altitude | Speed | Heading |
|---|---|---|---|---|---|
| 2026-04-22 17:01 | 0.45606 | 9.41142 | 40 ft | 0 kts | 16° |
| 2026-04-22 17:16 | 0.45611 | 9.41143 | 40 ft | 2 kts | 19° |
| 2026-04-22 17:16 | 0.45632 | 9.41156 | 39 ft | 5 kts | 37° |
| 2026-04-22 17:16 | 0.45667 | 9.41182 | 39 ft | 7 kts | 21° |
| 2026-04-22 17:16 | 0.45722 | 9.41175 | 39 ft | 9 kts | 339° |
| 2026-04-22 17:17 | 0.45783 | 9.41146 | 38 ft | 11 kts | 325° |
| 2026-04-22 17:17 | 0.45841 | 9.41091 | 40 ft | 12 kts | 320° |
| 2026-04-22 17:17 | 0.45917 | 9.41048 | 39 ft | 13 kts | 335° |
| 2026-04-22 17:17 | 0.45993 | 9.40995 | 39 ft | 14 kts | 314° |
| 2026-04-22 17:18 | 0.46074 | 9.40945 | 39 ft | 15 kts | 334° |
| 2026-04-22 17:18 | 0.46170 | 9.40899 | 40 ft | 16 kts | 335° |
| 2026-04-22 17:18 | 0.46230 | 9.40873 | 40 ft | 2 kts | 347° |
| 2026-04-22 17:18 | 0.46253 | 9.40874 | 40 ft | 5 kts | 13° |
| 2026-04-22 17:19 | 0.46309 | 9.40947 | 40 ft | 8 kts | 63° |
| 2026-04-22 17:19 | 0.46426 | 9.40959 | 42 ft | 12 kts | 339° |
| 2026-04-22 17:20 | 0.46601 | 9.40877 | 42 ft | 15 kts | 333° |
| 2026-04-22 17:20 | 0.46805 | 9.40773 | 42 ft | 18 kts | 333° |
| 2026-04-22 17:21 | 0.46918 | 9.40716 | 41 ft | 19 kts | 334° |
| 2026-04-22 17:21 | 0.47057 | 9.40636 | 39 ft | 7 kts | 34° |
| 2026-04-22 17:22 | 0.47040 | 9.40663 | 38 ft | 0 kts | 155° |
| 2026-04-22 17:22 | 0.47007 | 9.40678 | 40 ft | 28 kts | 155° |
| 2026-04-22 17:22 | 0.45702 | 9.41306 | 40 ft | 170 kts | 156° |
| 2026-04-22 17:23 | 0.44605 | 9.41810 | 564 ft | 178 kts | 161° |
| 2026-04-22 17:23 | 0.42095 | 9.41399 | 1735 ft | 199 kts | 212° |
| 2026-04-22 17:23 | 0.40920 | 9.40629 | 2422 ft | 204 kts | 219° |
| 2026-04-22 17:24 | 0.39833 | 9.39666 | 3055 ft | 215 kts | 223° |
| 2026-04-22 17:24 | 0.38721 | 9.38624 | 3715 ft | 226 kts | 224° |
| 2026-04-22 17:24 | 0.37600 | 9.37403 | 4060 ft | 249 kts | 235° |
| 2026-04-22 17:24 | 0.36685 | 9.35876 | 4609 ft | 262 kts | 242° |
| 2026-04-22 17:25 | 0.35830 | 9.34224 | 5207 ft | 273 kts | 244° |
| 2026-04-22 17:25 | 0.34954 | 9.32516 | 5714 ft | 278 kts | 237° |
| 2026-04-22 17:25 | 0.33540 | 9.31212 | 5815 ft | 280 kts | 208° |
| 2026-04-22 17:25 | 0.31646 | 9.30736 | 5898 ft | 291 kts | 176° |
| 2026-04-22 17:26 | 0.29760 | 9.31275 | 6824 ft | 285 kts | 156° |
| 2026-04-22 17:26 | 0.27990 | 9.32266 | 7462 ft | 294 kts | 147° |
| 2026-04-22 17:26 | 0.26329 | 9.33439 | 8186 ft | 295 kts | 143° |
| 2026-04-22 17:26 | 0.24682 | 9.34664 | 8989 ft | 295 kts | 143° |
| 2026-04-22 17:27 | 0.23581 | 9.35471 | 9462 ft | 297 kts | 143° |
| 2026-04-22 17:27 | 0.21305 | 9.37106 | 10219 ft | 309 kts | 143° |
| 2026-04-22 17:27 | 0.19496 | 9.38385 | 10527 ft | 327 kts | 143° |
| 2026-04-22 17:27 | 0.17608 | 9.39710 | 10793 ft | 345 kts | 143° |
| 2026-04-22 17:28 | 0.15590 | 9.41119 | 11093 ft | 360 kts | 143° |
| 2026-04-22 17:28 | 0.13426 | 9.42445 | 11638 ft | 368 kts | 151° |
| 2026-04-22 17:28 | 0.11097 | 9.43538 | 12295 ft | 371 kts | 153° |
| 2026-04-22 17:28 | 0.08728 | 9.44610 | 12970 ft | 374 kts | 153° |
| 2026-04-22 17:29 | 0.06351 | 9.45695 | 13616 ft | 376 kts | 153° |
| 2026-04-22 17:29 | 0.03958 | 9.46789 | 14239 ft | 379 kts | 153° |
| 2026-04-22 17:29 | 0.02370 | 9.47516 | 14639 ft | 380 kts | 153° |
| 2026-04-22 17:29 | -0.00048 | 9.48626 | 15237 ft | 383 kts | 153° |
| 2026-04-22 17:30 | -0.03271 | 9.50104 | 15982 ft | 386 kts | 153° |
| 2026-04-22 17:30 | -0.05719 | 9.51225 | 16521 ft | 388 kts | 153° |
| 2026-04-22 17:30 | -0.07801 | 9.52175 | 16952 ft | 391 kts | 153° |
| 2026-04-22 17:30 | -0.10278 | 9.53308 | 17464 ft | 393 kts | 153° |
| 2026-04-22 17:31 | -0.11930 | 9.54070 | 17797 ft | 394 kts | 153° |
| 2026-04-22 17:31 | -0.14433 | 9.55222 | 18288 ft | 396 kts | 153° |
| 2026-04-22 17:31 | -0.16953 | 9.56379 | 18754 ft | 399 kts | 153° |
| 2026-04-22 17:31 | -0.19479 | 9.57538 | 19178 ft | 402 kts | 153° |
| 2026-04-22 17:32 | -0.22034 | 9.58711 | 19586 ft | 406 kts | 153° |
| 2026-04-22 17:32 | -0.24617 | 9.59897 | 19986 ft | 410 kts | 153° |
| 2026-04-22 17:32 | -0.27223 | 9.61094 | 20386 ft | 413 kts | 153° |
| 2026-04-22 17:32 | -0.29811 | 9.62281 | 20769 ft | 416 kts | 153° |
| 2026-04-22 17:33 | -0.32453 | 9.63495 | 21157 ft | 419 kts | 153° |
| 2026-04-22 17:33 | -0.35115 | 9.64717 | 21557 ft | 423 kts | 153° |
| 2026-04-22 17:33 | -0.37806 | 9.65952 | 21941 ft | 426 kts | 153° |
| 2026-04-22 17:33 | -0.40512 | 9.67193 | 22314 ft | 429 kts | 154° |
| 2026-04-22 17:34 | -0.43242 | 9.68444 | 22680 ft | 432 kts | 153° |
| 2026-04-22 17:34 | -0.45986 | 9.69705 | 23015 ft | 435 kts | 154° |
| 2026-04-22 17:34 | -0.48753 | 9.70975 | 23336 ft | 438 kts | 154° |
| 2026-04-22 17:34 | -0.51500 | 9.72237 | 23643 ft | 441 kts | 154° |
| 2026-04-22 17:35 | -0.54300 | 9.73520 | 23937 ft | 444 kts | 154° |
| 2026-04-22 17:35 | -0.57110 | 9.74811 | 24239 ft | 446 kts | 154° |
| 2026-04-22 17:35 | -0.59944 | 9.76112 | 24529 ft | 448 kts | 154° |
| 2026-04-22 17:35 | -0.62793 | 9.77419 | 24821 ft | 450 kts | 154° |
| 2026-04-22 17:36 | -0.65647 | 9.78729 | 25112 ft | 452 kts | 154° |
| 2026-04-22 17:36 | -0.68508 | 9.80043 | 25391 ft | 454 kts | 154° |
| 2026-04-22 17:36 | -0.71354 | 9.81350 | 25669 ft | 456 kts | 154° |
| 2026-04-22 17:36 | -0.74252 | 9.82680 | 25947 ft | 457 kts | 154° |
| 2026-04-22 17:37 | -0.77151 | 9.84011 | 26220 ft | 459 kts | 154° |
| 2026-04-22 17:37 | -0.80065 | 9.85351 | 26480 ft | 461 kts | 154° |
| 2026-04-22 17:37 | -0.82976 | 9.86703 | 26734 ft | 462 kts | 154° |
| 2026-04-22 17:37 | -0.85904 | 9.88063 | 26991 ft | 464 kts | 154° |
| 2026-04-22 17:38 | -0.88837 | 9.89428 | 27245 ft | 465 kts | 154° |
| 2026-04-22 17:38 | -0.91743 | 9.90779 | 27485 ft | 467 kts | 154° |
| 2026-04-22 17:38 | -0.94693 | 9.92149 | 27731 ft | 468 kts | 154° |
| 2026-04-22 17:38 | -0.97657 | 9.93526 | 27972 ft | 469 kts | 154° |
| 2026-04-22 17:39 | -1.00623 | 9.94903 | 28199 ft | 471 kts | 154° |
| 2026-04-22 17:39 | -1.03594 | 9.96283 | 28434 ft | 472 kts | 154° |
| 2026-04-22 17:39 | -1.09577 | 9.99060 | 28857 ft | 474 kts | 154° |
| 2026-04-22 17:40 | -1.12569 | 10.00450 | 29102 ft | 474 kts | 154° |
| 2026-04-22 17:40 | -1.15559 | 10.01840 | 29403 ft | 473 kts | 154° |
| 2026-04-22 17:40 | -1.18537 | 10.03224 | 29734 ft | 470 kts | 154° |
| 2026-04-22 17:40 | -1.21504 | 10.04600 | 30032 ft | 469 kts | 154° |
| 2026-04-22 17:41 | -1.24457 | 10.05979 | 30329 ft | 467 kts | 154° |
| 2026-04-22 17:41 | -1.27259 | 10.07346 | 30584 ft | 467 kts | 153° |
| 2026-04-22 17:41 | -1.30143 | 10.08760 | 30817 ft | 467 kts | 153° |
| 2026-04-22 17:41 | -1.33091 | 10.10208 | 31079 ft | 466 kts | 153° |
| 2026-04-22 17:42 | -1.36002 | 10.11636 | 31341 ft | 465 kts | 153° |
| 2026-04-22 17:42 | -1.38909 | 10.13061 | 31598 ft | 465 kts | 153° |
| 2026-04-22 17:42 | -1.41775 | 10.14468 | 31837 ft | 465 kts | 153° |
| 2026-04-22 17:42 | -1.44678 | 10.15892 | 32090 ft | 464 kts | 153° |
| 2026-04-22 17:43 | -1.47578 | 10.17315 | 32328 ft | 464 kts | 153° |
| 2026-04-22 17:43 | -1.50481 | 10.18742 | 32571 ft | 463 kts | 153° |
| 2026-04-22 17:43 | -1.53374 | 10.20163 | 32784 ft | 463 kts | 153° |
| 2026-04-22 17:43 | -1.56272 | 10.21585 | 32996 ft | 463 kts | 153° |
| 2026-04-22 17:44 | -1.59160 | 10.23002 | 33209 ft | 463 kts | 153° |
| 2026-04-22 17:44 | -1.62049 | 10.24417 | 33412 ft | 462 kts | 153° |
| 2026-04-22 17:44 | -1.64909 | 10.25808 | 33612 ft | 462 kts | 153° |
| 2026-04-22 17:44 | -1.67800 | 10.27223 | 33790 ft | 462 kts | 153° |
| 2026-04-22 17:45 | -1.70693 | 10.28644 | 33973 ft | 462 kts | 153° |
| 2026-04-22 17:45 | -1.73570 | 10.30066 | 34142 ft | 462 kts | 153° |
| 2026-04-22 17:45 | -1.76452 | 10.31485 | 34337 ft | 461 kts | 153° |
| 2026-04-22 17:45 | -1.79330 | 10.32899 | 34525 ft | 461 kts | 153° |
| 2026-04-22 17:46 | -1.82211 | 10.34313 | 34691 ft | 461 kts | 153° |
| 2026-04-22 17:46 | -1.85118 | 10.35668 | 34816 ft | 462 kts | 156° |
| 2026-04-22 17:46 | -1.88096 | 10.36902 | 34831 ft | 461 kts | 156° |
| 2026-04-22 17:47 | -1.94032 | 10.39331 | 34809 ft | 461 kts | 156° |
| 2026-04-22 17:47 | -1.99940 | 10.41750 | 34804 ft | 461 kts | 156° |
| 2026-04-22 17:48 | -2.04915 | 10.43786 | 34810 ft | 460 kts | 156° |
| 2026-04-22 17:48 | -2.11818 | 10.46617 | 34800 ft | 461 kts | 156° |
| 2026-04-22 17:49 | -2.17760 | 10.49055 | 34805 ft | 461 kts | 156° |
| 2026-04-22 17:49 | -2.23655 | 10.51471 | 34805 ft | 461 kts | 156° |
| 2026-04-22 17:50 | -2.29588 | 10.53906 | 34803 ft | 460 kts | 156° |
| 2026-04-22 17:50 | -2.35512 | 10.56338 | 34804 ft | 460 kts | 156° |
| 2026-04-22 17:51 | -2.41444 | 10.58772 | 34815 ft | 459 kts | 156° |
| 2026-04-22 17:51 | -2.47337 | 10.61190 | 34808 ft | 459 kts | 156° |
| 2026-04-22 17:52 | -2.53255 | 10.63620 | 34812 ft | 459 kts | 156° |
| 2026-04-22 17:52 | -2.59145 | 10.66039 | 34804 ft | 458 kts | 156° |
| 2026-04-22 17:53 | -2.65073 | 10.68471 | 34811 ft | 459 kts | 156° |
| 2026-04-22 17:53 | -2.70992 | 10.70903 | 34817 ft | 458 kts | 156° |
| 2026-04-22 17:54 | -2.76856 | 10.73310 | 34818 ft | 457 kts | 156° |
| 2026-04-22 17:54 | -2.82768 | 10.75739 | 34811 ft | 458 kts | 156° |
| 2026-04-22 17:55 | -2.87676 | 10.77754 | 34819 ft | 457 kts | 156° |
| 2026-04-22 17:55 | -2.94541 | 10.80570 | 34817 ft | 457 kts | 156° |
| 2026-04-22 17:56 | -3.00438 | 10.82992 | 34817 ft | 457 kts | 156° |
| 2026-04-22 17:56 | -3.06303 | 10.85397 | 34816 ft | 457 kts | 156° |
| 2026-04-22 17:57 | -3.12202 | 10.87809 | 34811 ft | 457 kts | 156° |
| 2026-04-22 17:57 | -3.18095 | 10.90237 | 34808 ft | 457 kts | 156° |
| 2026-04-22 17:58 | -3.23943 | 10.92643 | 34805 ft | 456 kts | 156° |
| 2026-04-22 17:58 | -3.29822 | 10.95063 | 34820 ft | 456 kts | 156° |
| 2026-04-22 17:59 | -3.35713 | 10.97484 | 34809 ft | 456 kts | 156° |
| 2026-04-22 17:59 | -3.41606 | 10.99894 | 34808 ft | 457 kts | 156° |
| 2026-04-22 18:00 | -3.46492 | 11.01910 | 34810 ft | 456 kts | 156° |
| 2026-04-22 18:00 | -3.53341 | 11.04727 | 34808 ft | 456 kts | 156° |
| 2026-04-22 18:01 | -3.59219 | 11.07138 | 34812 ft | 456 kts | 156° |
| 2026-04-22 18:01 | -3.65092 | 11.09555 | 34809 ft | 456 kts | 156° |
| 2026-04-22 18:02 | -3.70960 | 11.11976 | 34807 ft | 456 kts | 156° |
| 2026-04-22 18:02 | -3.76792 | 11.14388 | 34805 ft | 457 kts | 156° |
| 2026-04-22 18:03 | -3.82667 | 11.16805 | 34805 ft | 456 kts | 156° |
| 2026-04-22 18:03 | -3.88536 | 11.19223 | 34819 ft | 456 kts | 156° |
| 2026-04-22 18:04 | -3.94376 | 11.21628 | 34804 ft | 455 kts | 156° |
| 2026-04-22 18:04 | -4.00244 | 11.24044 | 34814 ft | 456 kts | 156° |
| 2026-04-22 18:05 | -4.06117 | 11.26462 | 34820 ft | 455 kts | 156° |
| 2026-04-22 18:05 | -4.11952 | 11.28866 | 34820 ft | 456 kts | 156° |
| 2026-04-22 18:06 | -4.17820 | 11.31282 | 34831 ft | 455 kts | 156° |
| 2026-04-22 18:06 | -4.23682 | 11.33696 | 34821 ft | 455 kts | 156° |
| 2026-04-22 18:07 | -4.28560 | 11.35706 | 34817 ft | 455 kts | 156° |
| 2026-04-22 18:07 | -4.35412 | 11.38529 | 34817 ft | 455 kts | 156° |
| 2026-04-22 18:08 | -4.41270 | 11.40944 | 34828 ft | 455 kts | 156° |
| 2026-04-22 18:08 | -4.47104 | 11.43348 | 34824 ft | 455 kts | 156° |
| 2026-04-22 18:09 | -4.52969 | 11.45766 | 34818 ft | 455 kts | 156° |
| 2026-04-22 18:09 | -4.58837 | 11.48185 | 34809 ft | 455 kts | 156° |
| 2026-04-22 18:10 | -4.64670 | 11.50590 | 34820 ft | 455 kts | 156° |
| 2026-04-22 18:10 | -4.70530 | 11.53008 | 34819 ft | 455 kts | 156° |
| 2026-04-22 18:11 | -4.76393 | 11.55430 | 34825 ft | 456 kts | 156° |
| 2026-04-22 18:11 | -4.82266 | 11.57852 | 34830 ft | 456 kts | 156° |
| 2026-04-22 18:12 | -4.88123 | 11.60270 | 34819 ft | 456 kts | 156° |
| 2026-04-22 18:12 | -4.93009 | 11.62288 | 34830 ft | 454 kts | 155° |
| 2026-04-22 18:13 | -4.99786 | 11.65084 | 34820 ft | 453 kts | 155° |
| 2026-04-22 18:13 | -5.05610 | 11.67486 | 34821 ft | 452 kts | 155° |
| 2026-04-22 18:14 | -5.11445 | 11.69900 | 34813 ft | 453 kts | 155° |
| 2026-04-22 18:14 | -5.17243 | 11.72293 | 34817 ft | 453 kts | 155° |
| 2026-04-22 18:15 | -5.22092 | 11.74287 | 34808 ft | 453 kts | 155° |
| 2026-04-22 18:15 | -5.27926 | 11.76691 | 34809 ft | 453 kts | 155° |
| 2026-04-22 18:16 | -5.33756 | 11.79093 | 34821 ft | 453 kts | 155° |
| 2026-04-22 18:16 | -5.39609 | 11.81508 | 34816 ft | 453 kts | 155° |
| 2026-04-22 18:17 | -5.45406 | 11.83898 | 34816 ft | 453 kts | 155° |
| 2026-04-22 18:17 | -5.51251 | 11.86308 | 34821 ft | 453 kts | 155° |
| 2026-04-22 18:18 | -5.57096 | 11.88720 | 34816 ft | 453 kts | 155° |
| 2026-04-22 18:18 | -5.62928 | 11.91126 | 34820 ft | 454 kts | 155° |
| 2026-04-22 18:19 | -5.68736 | 11.93523 | 34827 ft | 453 kts | 155° |
| 2026-04-22 18:19 | -5.74590 | 11.95939 | 34827 ft | 454 kts | 155° |
| 2026-04-22 18:20 | -5.80439 | 11.98357 | 34821 ft | 454 kts | 155° |
| 2026-04-22 18:20 | -5.86245 | 12.00751 | 34821 ft | 454 kts | 155° |
| 2026-04-22 18:21 | -5.92097 | 12.03166 | 34815 ft | 454 kts | 155° |
| 2026-04-22 18:21 | -5.97933 | 12.05586 | 34827 ft | 454 kts | 155° |
| 2026-04-22 18:22 | -6.03785 | 12.07994 | 34821 ft | 453 kts | 155° |
| 2026-04-22 18:22 | -6.09592 | 12.10396 | 34822 ft | 454 kts | 155° |
| 2026-04-22 18:23 | -6.15446 | 12.12816 | 34820 ft | 454 kts | 155° |
| 2026-04-22 18:23 | -6.21294 | 12.15237 | 34808 ft | 454 kts | 155° |
| 2026-04-22 18:24 | -6.30054 | 12.18860 | 34821 ft | 453 kts | 155° |
| 2026-04-22 18:25 | -6.38779 | 12.22462 | 34818 ft | 453 kts | 155° |
| 2026-04-22 18:25 | -6.44617 | 12.24887 | 34813 ft | 453 kts | 155° |
| 2026-04-22 18:26 | -6.53347 | 12.28500 | 34810 ft | 454 kts | 155° |
| 2026-04-22 18:26 | -6.59192 | 12.30920 | 34838 ft | 454 kts | 155° |
| 2026-04-22 18:27 | -6.65043 | 12.33345 | 34849 ft | 454 kts | 155° |
| 2026-04-22 18:27 | -6.70847 | 12.35752 | 34850 ft | 454 kts | 155° |
| 2026-04-22 18:28 | -6.76682 | 12.38173 | 34850 ft | 454 kts | 155° |
| 2026-04-22 18:28 | -6.82531 | 12.40596 | 34851 ft | 454 kts | 156° |
| 2026-04-22 18:29 | -6.88338 | 12.43004 | 34850 ft | 454 kts | 156° |
| 2026-04-22 18:29 | -6.94180 | 12.45430 | 34851 ft | 454 kts | 156° |
| 2026-04-22 18:30 | -7.02959 | 12.49056 | 34851 ft | 454 kts | 156° |
| 2026-04-22 18:31 | -7.08805 | 12.51481 | 34850 ft | 454 kts | 156° |
| 2026-04-22 18:31 | -7.14622 | 12.53894 | 34850 ft | 454 kts | 156° |
| 2026-04-22 18:32 | -7.20470 | 12.56319 | 34851 ft | 454 kts | 156° |
| 2026-04-22 18:32 | -7.26310 | 12.58743 | 34851 ft | 454 kts | 156° |
| 2026-04-22 18:33 | -7.32151 | 12.61171 | 34850 ft | 454 kts | 156° |
| 2026-04-22 18:33 | -7.37956 | 12.63584 | 34850 ft | 454 kts | 156° |
| 2026-04-22 18:34 | -7.43811 | 12.66011 | 34850 ft | 454 kts | 156° |
| 2026-04-22 18:34 | -7.49621 | 12.68424 | 34850 ft | 453 kts | 156° |
| 2026-04-22 18:35 | -7.55453 | 12.70860 | 34850 ft | 453 kts | 156° |
| 2026-04-22 18:35 | -7.61293 | 12.73291 | 34850 ft | 454 kts | 156° |
| 2026-04-22 18:36 | -7.67137 | 12.75722 | 34850 ft | 454 kts | 156° |
| 2026-04-22 18:36 | -7.72933 | 12.78134 | 34850 ft | 453 kts | 156° |
| 2026-04-22 18:37 | -7.78767 | 12.80558 | 34850 ft | 453 kts | 156° |
| 2026-04-22 18:37 | -7.83658 | 12.82593 | 34850 ft | 453 kts | 156° |
| 2026-04-22 18:38 | -7.90442 | 12.85421 | 34851 ft | 453 kts | 156° |
| 2026-04-22 18:38 | -7.96277 | 12.87852 | 34850 ft | 453 kts | 156° |
| 2026-04-22 18:39 | -8.04975 | 12.91477 | 34850 ft | 448 kts | 156° |
| 2026-04-22 18:39 | -8.10790 | 12.93903 | 34851 ft | 454 kts | 156° |
| 2026-04-22 18:40 | -8.16639 | 12.96340 | 34850 ft | 454 kts | 156° |
| 2026-04-22 18:40 | -8.22442 | 12.98760 | 34850 ft | 453 kts | 156° |
| 2026-04-22 18:41 | -8.28287 | 13.01198 | 34850 ft | 453 kts | 156° |
| 2026-04-22 18:41 | -8.34097 | 13.03623 | 34850 ft | 454 kts | 156° |
| 2026-04-22 18:42 | -8.39946 | 13.06066 | 34851 ft | 454 kts | 156° |
| 2026-04-22 18:42 | -8.45797 | 13.08508 | 34850 ft | 454 kts | 156° |
| 2026-04-22 18:43 | -8.51602 | 13.10931 | 34851 ft | 454 kts | 156° |
| 2026-04-22 18:43 | -8.57439 | 13.13369 | 34851 ft | 454 kts | 156° |
| 2026-04-22 18:44 | -8.63276 | 13.15810 | 34850 ft | 454 kts | 156° |
| 2026-04-22 18:44 | -8.69118 | 13.18254 | 34850 ft | 454 kts | 156° |
| 2026-04-22 18:45 | -8.74966 | 13.20705 | 34850 ft | 454 kts | 156° |
| 2026-04-22 18:45 | -8.80768 | 13.23135 | 34850 ft | 453 kts | 156° |
| 2026-04-22 18:46 | -8.86688 | 13.25355 | 34851 ft | 454 kts | 162° |
| 2026-04-22 18:46 | -8.92771 | 13.27125 | 34850 ft | 454 kts | 163° |
| 2026-04-22 18:47 | -8.98850 | 13.28889 | 34850 ft | 455 kts | 163° |
| 2026-04-22 18:47 | -9.04905 | 13.30653 | 34851 ft | 455 kts | 163° |
| 2026-04-22 18:48 | -9.10995 | 13.32430 | 34850 ft | 455 kts | 163° |
| 2026-04-22 18:48 | -9.17075 | 13.34208 | 34850 ft | 455 kts | 163° |
| 2026-04-22 18:49 | -9.23165 | 13.35987 | 34850 ft | 454 kts | 163° |
| 2026-04-22 18:49 | -9.29204 | 13.37746 | 34850 ft | 454 kts | 163° |
| 2026-04-22 18:50 | -9.35281 | 13.39518 | 34850 ft | 454 kts | 163° |
| 2026-04-22 18:50 | -9.41361 | 13.41296 | 34850 ft | 454 kts | 163° |
| 2026-04-22 18:51 | -9.47432 | 13.43071 | 34851 ft | 454 kts | 163° |
| 2026-04-22 18:51 | -9.53516 | 13.44850 | 34850 ft | 454 kts | 163° |
| 2026-04-22 18:52 | -9.59588 | 13.46626 | 34850 ft | 454 kts | 163° |
| 2026-04-22 18:52 | -9.65672 | 13.48406 | 34851 ft | 455 kts | 163° |
| 2026-04-22 18:53 | -9.71724 | 13.50177 | 34855 ft | 455 kts | 163° |
| 2026-04-22 18:53 | -9.77806 | 13.51960 | 34868 ft | 454 kts | 163° |
| 2026-04-22 18:54 | -9.83885 | 13.53740 | 34871 ft | 454 kts | 163° |
| 2026-04-22 18:54 | -9.89911 | 13.55510 | 34870 ft | 454 kts | 163° |
| 2026-04-22 18:55 | -9.96044 | 13.57307 | 34878 ft | 454 kts | 163° |
| 2026-04-22 18:55 | -10.02078 | 13.59073 | 34879 ft | 454 kts | 163° |
| 2026-04-22 18:56 | -10.08157 | 13.60859 | 34879 ft | 454 kts | 163° |
| 2026-04-22 18:56 | -10.14237 | 13.62646 | 34888 ft | 454 kts | 163° |
| 2026-04-22 18:57 | -10.20317 | 13.64445 | 34890 ft | 454 kts | 163° |
| 2026-04-22 18:57 | -10.26350 | 13.66227 | 34890 ft | 454 kts | 163° |
| 2026-04-22 18:58 | -10.32427 | 13.68024 | 34898 ft | 454 kts | 163° |
| 2026-04-22 18:58 | -10.38496 | 13.69817 | 34900 ft | 454 kts | 163° |
| 2026-04-22 18:59 | -10.44543 | 13.71606 | 34901 ft | 454 kts | 163° |
| 2026-04-22 18:59 | -10.50624 | 13.73407 | 34909 ft | 455 kts | 163° |
| 2026-04-22 19:00 | -10.56700 | 13.75210 | 34910 ft | 455 kts | 163° |
| 2026-04-22 19:00 | -10.62788 | 13.77009 | 34911 ft | 454 kts | 163° |
| 2026-04-22 19:01 | -10.67835 | 13.78505 | 34916 ft | 455 kts | 163° |
| 2026-04-22 19:01 | -10.73924 | 13.80317 | 34920 ft | 455 kts | 163° |
| 2026-04-22 19:02 | -10.79541 | 13.83122 | 34919 ft | 456 kts | 142° |
| 2026-04-22 19:02 | -10.84370 | 13.87291 | 34924 ft | 456 kts | 139° |
| 2026-04-22 19:03 | -10.89181 | 13.91526 | 34928 ft | 456 kts | 140° |
| 2026-04-22 19:03 | -10.94020 | 13.95740 | 34930 ft | 457 kts | 140° |
| 2026-04-22 19:04 | -10.98854 | 13.99941 | 34930 ft | 457 kts | 140° |
| 2026-04-22 19:04 | -11.03657 | 14.04114 | 34934 ft | 457 kts | 140° |
| 2026-04-22 19:05 | -11.08501 | 14.08328 | 34945 ft | 457 kts | 140° |
| 2026-04-22 19:05 | -11.13342 | 14.12540 | 34941 ft | 457 kts | 140° |
| 2026-04-22 19:06 | -11.18154 | 14.16731 | 34944 ft | 458 kts | 140° |
| 2026-04-22 19:07 | -11.25434 | 14.23075 | 34950 ft | 459 kts | 140° |
| 2026-04-22 19:07 | -11.30262 | 14.27281 | 34948 ft | 459 kts | 140° |
| 2026-04-22 19:08 | -11.35118 | 14.31516 | 34948 ft | 459 kts | 140° |
| 2026-04-22 19:08 | -11.39971 | 14.35749 | 34953 ft | 459 kts | 141° |
| 2026-04-22 19:09 | -11.44831 | 14.39990 | 34956 ft | 459 kts | 141° |
| 2026-04-22 19:09 | -11.49683 | 14.44230 | 34962 ft | 459 kts | 141° |
| 2026-04-22 19:10 | -11.54512 | 14.48448 | 34970 ft | 460 kts | 141° |
| 2026-04-22 19:10 | -11.59363 | 14.52688 | 34975 ft | 460 kts | 141° |
| 2026-04-22 19:11 | -11.64222 | 14.56940 | 34979 ft | 460 kts | 141° |
| 2026-04-22 19:11 | -11.69081 | 14.61189 | 34998 ft | 460 kts | 141° |
| 2026-04-22 19:12 | -11.73931 | 14.65435 | 34996 ft | 459 kts | 141° |
| 2026-04-22 19:12 | -11.78780 | 14.69684 | 35007 ft | 459 kts | 141° |
| 2026-04-22 19:13 | -11.83624 | 14.73926 | 35009 ft | 459 kts | 141° |
| 2026-04-22 19:13 | -11.88475 | 14.78181 | 35019 ft | 459 kts | 140° |
| 2026-04-22 19:14 | -11.93302 | 14.82415 | 35027 ft | 459 kts | 140° |
| 2026-04-22 19:14 | -11.98135 | 14.86659 | 35037 ft | 458 kts | 140° |
| 2026-04-22 19:15 | -12.02151 | 14.90183 | 35047 ft | 458 kts | 141° |
| 2026-04-22 19:15 | -12.07831 | 14.95163 | 35062 ft | 460 kts | 141° |
| 2026-04-22 19:16 | -12.12661 | 14.99415 | 35079 ft | 459 kts | 141° |
| 2026-04-22 19:16 | -12.17506 | 15.03676 | 35082 ft | 459 kts | 141° |
| 2026-04-22 19:17 | -12.22358 | 15.07940 | 35101 ft | 459 kts | 141° |
| 2026-04-22 19:17 | -12.27174 | 15.12171 | 35110 ft | 459 kts | 141° |
| 2026-04-22 19:18 | -12.32026 | 15.16441 | 35120 ft | 459 kts | 140° |
| 2026-04-22 19:18 | -12.36865 | 15.20715 | 35128 ft | 459 kts | 140° |
| 2026-04-22 19:19 | -12.41671 | 15.24952 | 35149 ft | 458 kts | 140° |
| 2026-04-22 19:19 | -12.46498 | 15.29211 | 35151 ft | 458 kts | 140° |
| 2026-04-22 19:20 | -12.51340 | 15.33480 | 35163 ft | 458 kts | 140° |
| 2026-04-22 19:20 | -12.56175 | 15.37750 | 35177 ft | 458 kts | 140° |
| 2026-04-22 19:21 | -12.60988 | 15.41996 | 35185 ft | 458 kts | 141° |
| 2026-04-22 19:21 | -12.65800 | 15.46243 | 35189 ft | 459 kts | 140° |
| 2026-04-22 19:22 | -12.70638 | 15.50524 | 35191 ft | 459 kts | 140° |
| 2026-04-22 19:22 | -12.75479 | 15.54814 | 35201 ft | 459 kts | 140° |
| 2026-04-22 19:23 | -12.80293 | 15.59073 | 35202 ft | 459 kts | 140° |
| 2026-04-22 19:23 | -12.85138 | 15.63364 | 35202 ft | 460 kts | 140° |
| 2026-04-22 19:24 | -12.89988 | 15.67651 | 35201 ft | 460 kts | 140° |
| 2026-04-22 19:24 | -12.94848 | 15.71958 | 35203 ft | 461 kts | 140° |
| 2026-04-22 19:25 | -12.99672 | 15.76238 | 35198 ft | 461 kts | 140° |
| 2026-04-22 19:25 | -13.04525 | 15.80548 | 35196 ft | 462 kts | 140° |
| 2026-04-22 19:26 | -13.09394 | 15.84876 | 35200 ft | 462 kts | 140° |
| 2026-04-22 19:26 | -13.14262 | 15.89204 | 35200 ft | 463 kts | 140° |
| 2026-04-22 19:27 | -13.19108 | 15.93513 | 35198 ft | 464 kts | 140° |
| 2026-04-22 19:27 | -13.24000 | 15.97863 | 35196 ft | 464 kts | 140° |
| 2026-04-22 19:28 | -13.28889 | 16.02214 | 35203 ft | 464 kts | 140° |
| 2026-04-22 19:28 | -13.33744 | 16.06537 | 35202 ft | 464 kts | 140° |
| 2026-04-22 19:29 | -13.38622 | 16.10884 | 35200 ft | 464 kts | 140° |
| 2026-04-22 19:29 | -13.43499 | 16.15232 | 35196 ft | 464 kts | 140° |
| 2026-04-22 19:30 | -13.47565 | 16.18856 | 35202 ft | 465 kts | 140° |
| 2026-04-22 19:30 | -13.53290 | 16.23965 | 35201 ft | 465 kts | 140° |
| 2026-04-22 19:31 | -13.58155 | 16.28308 | 35208 ft | 466 kts | 140° |
| 2026-04-22 19:31 | -13.63044 | 16.32674 | 35211 ft | 466 kts | 140° |
| 2026-04-22 19:32 | -13.67948 | 16.37058 | 35210 ft | 466 kts | 140° |
| 2026-04-22 19:32 | -13.72849 | 16.41438 | 35210 ft | 466 kts | 140° |
| 2026-04-22 19:33 | -13.77703 | 16.45802 | 35211 ft | 466 kts | 140° |
| 2026-04-22 19:33 | -13.82561 | 16.50250 | 35211 ft | 466 kts | 139° |
| 2026-04-22 19:34 | -13.87407 | 16.54678 | 35210 ft | 466 kts | 140° |
| 2026-04-22 19:34 | -13.92233 | 16.59085 | 35210 ft | 466 kts | 140° |
| 2026-04-22 19:35 | -13.97083 | 16.63514 | 35210 ft | 465 kts | 139° |
| 2026-04-22 19:35 | -14.01105 | 16.67187 | 35199 ft | 465 kts | 140° |
| 2026-04-22 19:36 | -14.06794 | 16.72385 | 35182 ft | 468 kts | 140° |
| 2026-04-22 19:36 | -14.11673 | 16.76850 | 35180 ft | 468 kts | 140° |
| 2026-04-22 19:37 | -14.16541 | 16.81311 | 35179 ft | 468 kts | 139° |
| 2026-04-22 19:37 | -14.21383 | 16.85751 | 35179 ft | 468 kts | 139° |
| 2026-04-22 19:38 | -14.26256 | 16.90225 | 35173 ft | 468 kts | 139° |
| 2026-04-22 19:38 | -14.31126 | 16.94695 | 35169 ft | 468 kts | 139° |
| 2026-04-22 19:39 | -14.35994 | 16.99165 | 35170 ft | 468 kts | 140° |
| 2026-04-22 19:39 | -14.40829 | 17.03604 | 35171 ft | 468 kts | 139° |
| 2026-04-22 19:40 | -14.45698 | 17.08079 | 35171 ft | 468 kts | 140° |
| 2026-04-22 19:40 | -14.50572 | 17.12556 | 35168 ft | 468 kts | 139° |
| 2026-04-22 19:41 | -14.55443 | 17.17048 | 35171 ft | 469 kts | 139° |
| 2026-04-22 19:41 | -14.60286 | 17.21504 | 35161 ft | 469 kts | 140° |
| 2026-04-22 19:42 | -14.65149 | 17.25981 | 35160 ft | 468 kts | 139° |
| 2026-04-22 19:42 | -14.70016 | 17.30463 | 35161 ft | 468 kts | 139° |
| 2026-04-22 19:43 | -14.77316 | 17.37199 | 35162 ft | 470 kts | 139° |
| 2026-04-22 19:43 | -14.82194 | 17.41701 | 35160 ft | 469 kts | 139° |
| 2026-04-22 19:44 | -14.87075 | 17.46214 | 35159 ft | 470 kts | 139° |
| 2026-04-22 19:44 | -14.91927 | 17.50706 | 35162 ft | 470 kts | 139° |
| 2026-04-22 19:45 | -14.96808 | 17.55221 | 35160 ft | 471 kts | 139° |
| 2026-04-22 19:45 | -15.01702 | 17.59754 | 35159 ft | 472 kts | 140° |
| 2026-04-22 19:46 | -15.06607 | 17.64297 | 35161 ft | 472 kts | 140° |
| 2026-04-22 19:46 | -15.10684 | 17.68072 | 35161 ft | 473 kts | 140° |
| 2026-04-22 19:47 | -15.16387 | 17.73368 | 35161 ft | 474 kts | 140° |
| 2026-04-22 19:47 | -15.20515 | 17.77195 | 35160 ft | 475 kts | 140° |
| 2026-04-22 19:48 | -15.25409 | 17.81742 | 35160 ft | 476 kts | 140° |
| 2026-04-22 19:48 | -15.30343 | 17.86328 | 35160 ft | 477 kts | 140° |
| 2026-04-22 19:49 | -15.35282 | 17.90923 | 35160 ft | 477 kts | 140° |
| 2026-04-22 19:49 | -15.40240 | 17.95524 | 35160 ft | 478 kts | 140° |
| 2026-04-22 19:50 | -15.45206 | 18.00144 | 35161 ft | 479 kts | 140° |
| 2026-04-22 19:50 | -15.50157 | 18.04772 | 35159 ft | 479 kts | 140° |
| 2026-04-22 19:51 | -15.55131 | 18.09410 | 35168 ft | 480 kts | 140° |
| 2026-04-22 19:51 | -15.60077 | 18.14025 | 35169 ft | 481 kts | 140° |
| 2026-04-22 19:52 | -15.65052 | 18.18672 | 35169 ft | 481 kts | 140° |
| 2026-04-22 19:52 | -15.70032 | 18.23322 | 35171 ft | 481 kts | 140° |
| 2026-04-22 19:53 | -15.75014 | 18.27977 | 35171 ft | 482 kts | 140° |
| 2026-04-22 19:53 | -15.79993 | 18.32641 | 35170 ft | 481 kts | 140° |
| 2026-04-22 19:54 | -15.84969 | 18.37294 | 35170 ft | 481 kts | 140° |
| 2026-04-22 19:54 | -15.89908 | 18.41926 | 35172 ft | 481 kts | 140° |
| 2026-04-22 19:55 | -15.94877 | 18.46584 | 35180 ft | 480 kts | 140° |
| 2026-04-22 19:55 | -15.99845 | 18.51234 | 35180 ft | 480 kts | 140° |
| 2026-04-22 19:56 | -16.04796 | 18.55880 | 35181 ft | 482 kts | 140° |
| 2026-04-22 19:56 | -16.09775 | 18.60563 | 35180 ft | 482 kts | 139° |
| 2026-04-22 19:57 | -16.14756 | 18.65257 | 35180 ft | 482 kts | 140° |
| 2026-04-22 19:57 | -16.19739 | 18.69942 | 35190 ft | 482 kts | 140° |
| 2026-04-22 19:58 | -16.24695 | 18.74590 | 35190 ft | 482 kts | 139° |
| 2026-04-22 19:58 | -16.29692 | 18.79275 | 35192 ft | 482 kts | 139° |
| 2026-04-22 20:00 | -16.47098 | 18.95717 | 35214 ft | 483 kts | 139° |
| 2026-04-22 20:01 | -16.52079 | 19.00424 | 35219 ft | 483 kts | 139° |
| 2026-04-22 20:01 | -16.57054 | 19.05129 | 35220 ft | 483 kts | 139° |
| 2026-04-22 20:02 | -16.61996 | 19.09812 | 35220 ft | 483 kts | 139° |
| 2026-04-22 20:02 | -16.66972 | 19.14534 | 35220 ft | 483 kts | 139° |
| 2026-04-22 20:03 | -16.71938 | 19.19242 | 35220 ft | 483 kts | 139° |
| 2026-04-22 20:03 | -16.76918 | 19.23968 | 35220 ft | 483 kts | 139° |
| 2026-04-22 20:04 | -16.81876 | 19.28678 | 35221 ft | 484 kts | 139° |
| 2026-04-22 20:04 | -16.86866 | 19.33411 | 35220 ft | 484 kts | 139° |
| 2026-04-22 20:05 | -16.91850 | 19.38150 | 35228 ft | 484 kts | 139° |
| 2026-04-22 20:05 | -16.96807 | 19.42872 | 35229 ft | 485 kts | 139° |
| 2026-04-22 20:06 | -17.01802 | 19.47636 | 35230 ft | 485 kts | 139° |
| 2026-04-22 20:06 | -17.06798 | 19.52395 | 35231 ft | 485 kts | 139° |
| 2026-04-22 20:07 | -17.11769 | 19.57124 | 35222 ft | 486 kts | 139° |
| 2026-04-22 20:07 | -17.16782 | 19.61909 | 35222 ft | 486 kts | 139° |
| 2026-04-22 20:08 | -17.21789 | 19.66692 | 35222 ft | 487 kts | 139° |
| 2026-04-22 20:08 | -17.26811 | 19.71491 | 35219 ft | 488 kts | 139° |
| 2026-04-22 20:09 | -17.31781 | 19.76264 | 35223 ft | 488 kts | 139° |
| 2026-04-22 20:09 | -17.36797 | 19.81072 | 35230 ft | 488 kts | 139° |
| 2026-04-22 20:10 | -17.41820 | 19.85883 | 35231 ft | 489 kts | 139° |
| 2026-04-22 20:10 | -17.46857 | 19.90712 | 35228 ft | 490 kts | 139° |
| 2026-04-22 20:11 | -17.51888 | 19.95538 | 35230 ft | 491 kts | 139° |
| 2026-04-22 20:11 | -17.56898 | 20.00351 | 35230 ft | 491 kts | 139° |
| 2026-04-22 20:12 | -17.61949 | 20.05204 | 35230 ft | 491 kts | 139° |
| 2026-04-22 20:12 | -17.66141 | 20.09233 | 35230 ft | 491 kts | 139° |
| 2026-04-22 20:13 | -17.72027 | 20.14899 | 35229 ft | 492 kts | 139° |
| 2026-04-22 20:13 | -17.77048 | 20.19737 | 35233 ft | 492 kts | 139° |
| 2026-04-22 20:14 | -17.82104 | 20.24614 | 35230 ft | 492 kts | 139° |
| 2026-04-22 20:14 | -17.87155 | 20.29483 | 35229 ft | 492 kts | 140° |
| 2026-04-22 20:15 | -17.92464 | 20.34008 | 35231 ft | 491 kts | 143° |
| 2026-04-22 20:15 | -17.97827 | 20.38456 | 35230 ft | 490 kts | 143° |
| 2026-04-22 20:16 | -18.03150 | 20.42888 | 35229 ft | 491 kts | 143° |
| 2026-04-22 20:16 | -18.08511 | 20.47357 | 35231 ft | 491 kts | 143° |
| 2026-04-22 20:17 | -18.13842 | 20.51803 | 35231 ft | 491 kts | 143° |
| 2026-04-22 20:17 | -18.19199 | 20.56274 | 35224 ft | 491 kts | 143° |
| 2026-04-22 20:18 | -18.24550 | 20.60746 | 35220 ft | 492 kts | 143° |
| 2026-04-22 20:18 | -18.29915 | 20.65230 | 35219 ft | 492 kts | 143° |
| 2026-04-22 20:19 | -18.35283 | 20.69720 | 35223 ft | 492 kts | 143° |
| 2026-04-22 20:19 | -18.40629 | 20.74197 | 35219 ft | 491 kts | 143° |
| 2026-04-22 20:20 | -18.45944 | 20.78652 | 35220 ft | 491 kts | 143° |
| 2026-04-22 20:20 | -18.51283 | 20.83130 | 35221 ft | 491 kts | 143° |
| 2026-04-22 20:21 | -18.56634 | 20.87622 | 35220 ft | 491 kts | 143° |
| 2026-04-22 20:21 | -18.61979 | 20.92117 | 35221 ft | 491 kts | 143° |
| 2026-04-22 20:22 | -18.67317 | 20.96604 | 35221 ft | 491 kts | 143° |
| 2026-04-22 20:22 | -18.72673 | 21.01108 | 35211 ft | 491 kts | 143° |
| 2026-04-22 20:23 | -18.77982 | 21.05584 | 35210 ft | 491 kts | 143° |
| 2026-04-22 20:23 | -18.83329 | 21.10097 | 35211 ft | 491 kts | 143° |
| 2026-04-22 20:24 | -18.88669 | 21.14602 | 35209 ft | 491 kts | 143° |
| 2026-04-22 20:24 | -18.94014 | 21.19115 | 35210 ft | 492 kts | 143° |
| 2026-04-22 20:25 | -18.99327 | 21.23609 | 35211 ft | 492 kts | 143° |
| 2026-04-22 20:25 | -19.04675 | 21.28136 | 35210 ft | 492 kts | 143° |
| 2026-04-22 20:26 | -19.10031 | 21.32673 | 35201 ft | 493 kts | 143° |
| 2026-04-22 20:26 | -19.15385 | 21.37211 | 35197 ft | 493 kts | 143° |
| 2026-04-22 20:27 | -19.20712 | 21.41731 | 35202 ft | 494 kts | 143° |
| 2026-04-22 20:27 | -19.26086 | 21.46292 | 35201 ft | 494 kts | 143° |
| 2026-04-22 20:28 | -19.31446 | 21.50847 | 35202 ft | 494 kts | 143° |
| 2026-04-22 20:28 | -19.36815 | 21.55416 | 35203 ft | 495 kts | 143° |
| 2026-04-22 20:29 | -19.42155 | 21.59962 | 35199 ft | 495 kts | 143° |
| 2026-04-22 20:29 | -19.47522 | 21.64538 | 35193 ft | 496 kts | 143° |
| 2026-04-22 20:30 | -19.52895 | 21.69129 | 35188 ft | 496 kts | 143° |
| 2026-04-22 20:30 | -19.58259 | 21.73748 | 35191 ft | 497 kts | 143° |
| 2026-04-22 20:31 | -19.63624 | 21.78367 | 35192 ft | 497 kts | 143° |
| 2026-04-22 20:31 | -19.68993 | 21.82991 | 35189 ft | 497 kts | 143° |
| 2026-04-22 20:32 | -19.74337 | 21.87592 | 35190 ft | 497 kts | 143° |
| 2026-04-22 20:32 | -19.79750 | 21.92202 | 35184 ft | 498 kts | 143° |
| 2026-04-22 20:33 | -19.84248 | 21.96008 | 35182 ft | 498 kts | 143° |
| 2026-04-22 20:33 | -19.90552 | 22.01356 | 35180 ft | 498 kts | 143° |
| 2026-04-22 20:34 | -19.95096 | 22.05212 | 35179 ft | 498 kts | 143° |
| 2026-04-22 20:34 | -20.00478 | 22.09784 | 35180 ft | 498 kts | 143° |
| 2026-04-22 20:35 | -20.05899 | 22.14416 | 35180 ft | 498 kts | 143° |
| 2026-04-22 20:35 | -20.11320 | 22.19032 | 35181 ft | 498 kts | 143° |
| 2026-04-22 20:36 | -20.16688 | 22.23625 | 35181 ft | 498 kts | 143° |
| 2026-04-22 20:36 | -20.22111 | 22.28262 | 35180 ft | 498 kts | 143° |
| 2026-04-22 20:37 | -20.24820 | 22.30577 | 35180 ft | 498 kts | 143° |